Terminal Aerodrome Forecast
Issued by NWS

Home | Current Version | Previous Version | Text Only | Print | Product List | Glossary On
Versions: 1 2 3 4 5 6 7 8 9 10 11 12 13 14 15 16 17 18 19 20 21 22 23 24 25 26 27 28 29 30 31 32 33
000
FTUS46 KOTX 190907 AAA
TAFPUW
TAF AMD
KPUW 190907Z 1909/2006 10010KT P6SM -RA SCT040 OVC070
     FM191300 12009KT 4SM -RA BKN015 OVC025
     FM191700 15008KT 3SM RA BR BKN008 OVC012
     FM192200 23010KT P6SM BKN015 OVC025
     FM200300 14006KT P6SM OVC035=

USA.gov is the U.S. government's official web portal to all federal, state and local government web resources and services.